Sultan, Canada
Current Conditions -  °F | °C
As of 9:00 PM on Sunday 21 Dec 2014 (Local Time) from CYLD Reporting Station
Overcast Overcast  
Wind Chill: 17°   Ceiling: 2500
Heat Index: 25°   Visibility: 15mi
Dew Point: 21°   Wind: 7mph
Humidity: 86%   Direction: 170°S
Pressure: 30.07"   Gusts: NA
Location:  47.58°N, 82.77°W
Report Text: CYLD 220200Z 17006KT 15SM OVC025 M04/M06 A3007 RMK SC8 LASTOBS/NEXT 22 1100Z SLP213
Loading
Personal Weather Stations






























Interactive Weather Map New forecast layout! Learn more

10-Day Weather Forecast

Advertisements
Track Severe Weather on mobile